createdAt,value
2018-06-27T00:01:19.469Z,82.50
2018-06-27T00:03:47.849Z,82.30
2018-06-27T00:06:16.296Z,81.90
2018-06-27T00:08:44.702Z,82.60
2018-06-27T00:11:13.149Z,82.80
2018-06-27T00:13:42.022Z,82.00
2018-06-27T00:16:10.458Z,81.90
2018-06-27T00:18:38.845Z,82.20
2018-06-27T00:21:07.277Z,82.50
2018-06-27T00:23:35.769Z,82.60
2018-06-27T00:26:04.457Z,83.30
2018-06-27T00:28:32.923Z,83.40
2018-06-27T00:31:01.334Z,83.60
2018-06-27T00:33:29.698Z,83.50
2018-06-27T00:35:58.296Z,82.80
2018-06-27T00:38:26.710Z,82.30
2018-06-27T00:40:55.129Z,82.60
2018-06-27T00:43:23.569Z,82.30
2018-06-27T00:45:51.985Z,82.40
2018-06-27T00:48:20.413Z,82.20
2018-06-27T00:50:48.870Z,81.90
2018-06-27T00:53:17.268Z,82.50
2018-06-27T00:55:45.645Z,82.60
2018-06-27T00:58:14.328Z,82.30
2018-06-27T01:00:42.728Z,82.70
2018-06-27T01:03:11.119Z,82.20
2018-06-27T01:05:39.532Z,82.20
2018-06-27T01:08:07.924Z,82.00
2018-06-27T01:10:36.370Z,82.00
2018-06-27T01:13:04.785Z,82.80
2018-06-27T01:15:33.224Z,82.80
2018-06-27T01:18:01.598Z,83.30
2018-06-27T01:20:29.956Z,83.60
2018-06-27T01:22:58.960Z,84.40
2018-06-27T01:25:27.316Z,84.30
2018-06-27T01:27:55.739Z,84.50
2018-06-27T01:30:24.105Z,84.70
2018-06-27T01:32:52.790Z,84.20
2018-06-27T01:35:21.217Z,84.20
2018-06-27T01:37:49.523Z,84.50
2018-06-27T01:40:18.004Z,84.40
2018-06-27T01:45:14.532Z,84.60
2018-06-27T01:47:43.165Z,85.00
2018-06-27T01:50:11.605Z,86.00
2018-06-27T01:52:40.101Z,84.90
2018-06-27T01:55:08.521Z,85.10
2018-06-27T01:57:36.895Z,85.60
2018-06-27T02:00:07.274Z,85.80
2018-06-27T02:02:35.727Z,85.90
2018-06-27T02:05:05.172Z,85.80
2018-06-27T02:07:33.594Z,85.50
2018-06-27T02:10:01.998Z,85.10
2018-06-27T02:12:30.441Z,85.80
2018-06-27T02:14:59.203Z,84.90
2018-06-27T02:17:27.583Z,86.60
2018-06-27T02:19:55.955Z,85.60
2018-06-27T02:22:24.340Z,85.50
2018-06-27T02:24:52.829Z,85.20
2018-06-27T02:27:21.225Z,85.10
2018-06-27T02:29:49.582Z,84.80
2018-06-27T02:32:18.709Z,85.10
2018-06-27T02:34:47.773Z,85.30
2018-06-27T02:37:16.956Z,85.90
2018-06-27T02:39:45.996Z,86.60
2018-06-27T02:42:14.781Z,86.50
2018-06-27T02:44:43.770Z,86.40
2018-06-27T02:47:12.239Z,85.90
2018-06-27T02:49:40.676Z,86.40
2018-06-27T02:52:08.999Z,86.90
2018-06-27T02:54:37.394Z,87.60
2018-06-27T02:57:06.073Z,87.50
2018-06-27T02:59:34.599Z,87.80
2018-06-27T03:02:03.005Z,87.50
2018-06-27T03:04:31.385Z,87.30
2018-06-27T03:06:59.782Z,88.30
2018-06-27T03:09:28.146Z,87.50
2018-06-27T03:11:56.556Z,87.60
2018-06-27T03:16:53.135Z,87.20
2018-06-27T03:19:21.508Z,87.40
2018-06-27T03:21:49.918Z,87.80
2018-06-27T03:24:18.324Z,87.80
2018-06-27T03:26:46.694Z,87.40
2018-06-27T03:29:15.416Z,87.10
2018-06-27T03:31:43.749Z,86.90
2018-06-27T03:34:12.172Z,87.40
2018-06-27T03:36:40.630Z,87.70
2018-06-27T03:39:09.371Z,87.70
2018-06-27T03:41:37.831Z,88.30
2018-06-27T03:44:06.484Z,88.10
2018-06-27T03:46:34.932Z,87.50
2018-06-27T03:49:03.364Z,87.20
2018-06-27T03:51:31.744Z,87.10
2018-06-27T03:54:00.478Z,86.70
2018-06-27T03:56:29.163Z,86.60
2018-06-27T03:58:57.499Z,87.40
2018-06-27T04:01:25.905Z,87.70
2018-06-27T04:03:54.325Z,87.90
2018-06-27T04:06:22.665Z,88.60
2018-06-27T04:08:51.018Z,87.80
2018-06-27T04:11:19.400Z,87.70
2018-06-27T04:13:47.738Z,87.50
2018-06-27T04:16:16.077Z,88.30
2018-06-27T04:18:44.503Z,87.80
2018-06-27T04:21:12.919Z,87.90
2018-06-27T04:23:41.293Z,88.50
2018-06-27T04:26:09.681Z,88.40
2018-06-27T04:28:38.030Z,88.80
2018-06-27T04:31:06.450Z,88.60
2018-06-27T04:33:34.812Z,88.70
2018-06-27T04:36:03.257Z,89.60
2018-06-27T04:38:31.693Z,90.20
2018-06-27T04:41:00.165Z,89.70
2018-06-27T04:43:28.571Z,89.50
2018-06-27T04:45:57.194Z,88.70
2018-06-27T04:48:25.616Z,89.00
2018-06-27T04:50:54.148Z,88.50
2018-06-27T04:53:22.574Z,89.00
2018-06-27T04:55:51.012Z,89.10
2018-06-27T04:58:19.368Z,88.60
2018-06-27T05:00:47.843Z,88.50
2018-06-27T05:03:16.252Z,88.80
2018-06-27T05:05:45.002Z,89.00
2018-06-27T05:08:13.656Z,88.60
2018-06-27T05:10:42.073Z,88.60
2018-06-27T05:13:10.588Z,88.50
2018-06-27T05:15:39.009Z,88.00
2018-06-27T05:18:07.453Z,87.40
2018-06-27T05:20:35.849Z,87.10
2018-06-27T05:23:04.377Z,87.20
2018-06-27T05:25:32.791Z,87.10
2018-06-27T05:28:01.480Z,86.40
2018-06-27T05:30:29.884Z,86.50
2018-06-27T05:32:58.319Z,86.40
2018-06-27T05:35:26.785Z,86.80
2018-06-27T05:37:55.185Z,86.10
2018-06-27T05:40:23.973Z,85.90
2018-06-27T05:42:52.360Z,85.80
2018-06-27T05:45:20.764Z,86.20
2018-06-27T05:47:49.160Z,86.60
2018-06-27T05:50:17.786Z,85.90
2018-06-27T05:52:46.330Z,86.10
2018-06-27T05:55:14.777Z,85.80
2018-06-27T05:57:43.233Z,85.70
2018-06-27T06:00:13.064Z,85.50
2018-06-27T06:02:41.778Z,85.60
2018-06-27T06:05:10.424Z,85.50
2018-06-27T06:07:38.810Z,85.00
2018-06-27T06:10:07.251Z,84.80
2018-06-27T06:12:35.936Z,84.80
2018-06-27T06:15:04.580Z,84.00
2018-06-27T06:17:33.020Z,84.70
2018-06-27T06:20:01.520Z,84.40
2018-06-27T06:22:30.496Z,84.00
2018-06-27T06:24:58.872Z,84.00
2018-06-27T06:27:27.341Z,83.30
2018-06-27T06:29:55.861Z,83.50
2018-06-27T06:32:24.298Z,83.10
2018-06-27T06:34:52.902Z,82.90
2018-06-27T06:37:21.315Z,82.50
2018-06-27T06:39:50.167Z,82.00
2018-06-27T06:42:18.617Z,81.80
2018-06-27T06:44:47.092Z,81.20
2018-06-27T06:47:15.834Z,80.40
2018-06-27T06:49:44.305Z,79.70
2018-06-27T06:52:12.777Z,80.30
2018-06-27T06:54:41.230Z,79.40
2018-06-27T06:57:09.653Z,79.60
2018-06-27T06:59:38.072Z,78.80
2018-06-27T07:02:07.819Z,78.70
2018-06-27T07:04:36.457Z,79.30
2018-06-27T07:09:32.962Z,78.10
2018-06-27T07:12:01.506Z,76.90
2018-06-27T07:14:29.924Z,77.60
2018-06-27T07:16:58.303Z,77.60
2018-06-27T07:19:26.753Z,76.50
2018-06-27T07:21:55.378Z,76.40
2018-06-27T07:24:23.743Z,75.70
2018-06-27T07:26:52.103Z,74.90
2018-06-27T07:29:20.513Z,76.20
2018-06-27T07:31:49.938Z,75.90
2018-06-27T07:34:18.374Z,75.50
2018-06-27T07:36:46.812Z,75.20
2018-06-27T07:39:15.505Z,74.90
2018-06-27T07:41:43.881Z,74.60
2018-06-27T07:44:12.251Z,74.30
2018-06-27T07:46:40.693Z,74.60
2018-06-27T07:49:09.117Z,73.10
2018-06-27T07:51:37.827Z,73.40
2018-06-27T07:54:06.201Z,74.40
2018-06-27T07:56:34.541Z,72.90
2018-06-27T07:59:02.867Z,72.70
2018-06-27T08:01:31.206Z,72.40
2018-06-27T08:03:59.729Z,69.90
2018-06-27T08:06:58.882Z,67.20
2018-06-27T08:09:27.257Z,66.20
2018-06-27T08:11:55.588Z,65.40
2018-06-27T08:14:23.995Z,63.40
2018-06-27T08:16:52.697Z,61.90
2018-06-27T08:19:22.433Z,60.20
2018-06-27T08:21:51.495Z,61.30
2018-06-27T08:24:20.559Z,59.60
2018-06-27T08:26:49.622Z,58.20
2018-06-27T08:29:19.258Z,59.10
2018-06-27T08:31:48.303Z,59.20
2018-06-27T08:36:46.856Z,55.90
2018-06-27T08:39:15.929Z,56.60
2018-06-27T08:41:45.698Z,55.50
2018-06-27T08:44:14.031Z,55.90
2018-06-27T08:46:42.405Z,56.80
2018-06-27T08:49:11.400Z,55.70
2018-06-27T08:51:39.780Z,56.60
2018-06-27T08:54:08.112Z,54.80
2018-06-27T08:56:37.149Z,54.30
2018-06-27T08:59:05.636Z,54.00
2018-06-27T09:01:34.035Z,55.60
2018-06-27T09:04:02.453Z,54.70
2018-06-27T09:06:30.852Z,56.00
2018-06-27T09:08:59.225Z,57.40
2018-06-27T09:11:27.589Z,55.40
2018-06-27T09:13:56.697Z,54.60
2018-06-27T09:16:25.807Z,54.20
2018-06-27T09:18:56.785Z,54.80
2018-06-27T09:21:25.749Z,54.30
2018-06-27T09:23:54.162Z,56.40
2018-06-27T09:26:22.594Z,56.60
2018-06-27T09:28:51.097Z,56.20
2018-06-27T09:31:19.591Z,55.40
2018-06-27T09:33:48.021Z,53.10
2018-06-27T09:36:16.351Z,50.70
2018-06-27T09:38:44.809Z,52.70
2018-06-27T09:41:13.206Z,51.60
2018-06-27T09:43:41.556Z,50.70
2018-06-27T09:46:09.979Z,50.80
2018-06-27T09:48:38.334Z,51.50
2018-06-27T09:51:07.067Z,52.90
2018-06-27T09:53:35.441Z,52.40
2018-06-27T09:56:03.859Z,53.10
2018-06-27T09:58:32.185Z,51.80
2018-06-27T10:01:00.629Z,51.60
2018-06-27T10:03:29.060Z,53.40
2018-06-27T10:05:57.538Z,53.90
2018-06-27T10:08:25.903Z,53.20
2018-06-27T10:10:54.238Z,53.70
2018-06-27T10:13:22.588Z,53.70
2018-06-27T10:15:51.036Z,52.20
2018-06-27T10:18:19.487Z,52.70
2018-06-27T10:20:47.867Z,52.90
2018-06-27T10:23:16.189Z,51.00
2018-06-27T10:25:44.641Z,51.10
2018-06-27T10:28:13.048Z,51.70
2018-06-27T10:30:41.425Z,52.30
2018-06-27T10:33:09.806Z,53.30
2018-06-27T10:35:38.135Z,50.30
2018-06-27T10:38:06.505Z,51.30
2018-06-27T10:40:34.894Z,50.40
2018-06-27T10:43:03.274Z,52.20
2018-06-27T10:45:31.689Z,49.40
2018-06-27T10:48:00.045Z,49.50
2018-06-27T10:50:28.430Z,48.80
2018-06-27T10:52:56.784Z,48.40
2018-06-27T10:55:25.464Z,48.80
2018-06-27T10:57:53.810Z,48.70
2018-06-27T11:00:22.149Z,48.90
2018-06-27T11:02:50.535Z,49.70
2018-06-27T11:05:19.172Z,49.80
2018-06-27T11:07:47.497Z,49.10
2018-06-27T11:12:43.910Z,47.30
2018-06-27T11:15:12.300Z,47.60
2018-06-27T11:17:40.652Z,48.50
2018-06-27T11:20:09.050Z,48.60
2018-06-27T11:22:37.462Z,45.70
2018-06-27T11:25:05.875Z,46.20
2018-06-27T11:27:34.199Z,46.30
2018-06-27T11:30:02.582Z,46.30
2018-06-27T11:32:30.973Z,46.20
2018-06-27T11:35:00.416Z,47.20
2018-06-27T11:37:28.784Z,47.00
2018-06-27T11:39:57.123Z,46.60
2018-06-27T11:42:25.507Z,48.00
2018-06-27T11:44:53.866Z,49.20
2018-06-27T11:47:22.201Z,47.40
2018-06-27T11:49:50.587Z,46.30
2018-06-27T11:52:19.026Z,46.90
2018-06-27T11:54:51.585Z,48.00
2018-06-27T11:59:48.024Z,44.10
2018-06-27T12:02:16.386Z,45.40
2018-06-27T12:04:44.983Z,45.40
2018-06-27T12:07:13.322Z,46.60
2018-06-27T12:09:41.705Z,45.60
2018-06-27T12:12:10.061Z,46.50
2018-06-27T12:14:38.387Z,45.50
2018-06-27T12:17:07.021Z,46.00
2018-06-27T12:19:35.518Z,47.10
2018-06-27T12:24:32.086Z,44.10
2018-06-27T12:27:00.450Z,45.60
2018-06-27T12:29:28.795Z,46.00
2018-06-27T12:31:57.151Z,46.00
2018-06-27T12:34:25.511Z,45.50
2018-06-27T12:36:53.879Z,47.00
2018-06-27T12:39:22.221Z,45.70
2018-06-27T12:41:50.620Z,46.20
2018-06-27T12:44:18.957Z,44.70
2018-06-27T12:46:47.337Z,45.00
2018-06-27T12:49:15.758Z,46.00
2018-06-27T12:51:44.286Z,43.70
2018-06-27T12:54:12.684Z,44.10
2018-06-27T12:56:41.445Z,44.70
2018-06-27T12:59:09.827Z,44.30
2018-06-27T13:01:38.236Z,44.80
2018-06-27T13:04:06.598Z,45.00
2018-06-27T13:06:35.152Z,44.60
2018-06-27T13:09:03.895Z,46.40
2018-06-27T13:11:32.488Z,45.60
2018-06-27T13:14:00.891Z,45.30
2018-06-27T13:16:29.341Z,46.70
2018-06-27T13:18:57.752Z,45.90
2018-06-27T13:21:26.139Z,46.40
2018-06-27T13:23:54.527Z,46.00
2018-06-27T13:26:22.908Z,47.10
2018-06-27T13:28:51.294Z,46.00
2018-06-27T13:31:20.052Z,44.80
2018-06-27T13:36:16.556Z,45.20
2018-06-27T13:38:44.905Z,45.80
2018-06-27T13:41:13.372Z,46.80
2018-06-27T13:43:41.751Z,46.70
2018-06-27T13:46:10.103Z,46.20
2018-06-27T13:48:38.485Z,46.80
2018-06-27T13:51:06.941Z,46.80
2018-06-27T13:53:35.346Z,46.60
2018-06-27T13:56:03.795Z,48.00
2018-06-27T13:58:32.190Z,46.90
2018-06-27T14:01:01.367Z,48.30
2018-06-27T14:05:57.829Z,48.40
2018-06-27T14:08:26.229Z,46.50
2018-06-27T14:10:54.614Z,46.60
2018-06-27T14:13:23.504Z,46.30
2018-06-27T14:15:52.079Z,47.10
2018-06-27T14:18:20.502Z,45.90
2018-06-27T14:20:49.588Z,46.60
2018-06-27T14:23:17.893Z,46.60
2018-06-27T14:25:46.248Z,46.20
2018-06-27T14:28:14.627Z,45.90
2018-06-27T14:30:43.210Z,46.70
2018-06-27T14:33:12.926Z,46.60
2018-06-27T14:35:41.567Z,46.80
2018-06-27T14:38:09.931Z,47.50
2018-06-27T14:40:38.501Z,47.50
2018-06-27T14:43:07.731Z,47.10
2018-06-27T14:45:36.165Z,48.40
2018-06-27T14:48:04.549Z,47.70
2018-06-27T14:50:33.139Z,47.40
2018-06-27T14:53:01.528Z,47.20
2018-06-27T14:55:30.093Z,47.60
2018-06-27T14:57:58.506Z,47.20
2018-06-27T15:00:26.965Z,48.00
2018-06-27T15:02:55.392Z,46.50
2018-06-27T15:05:24.096Z,47.60
2018-06-27T15:07:52.465Z,47.60
2018-06-27T15:10:20.853Z,48.60
2018-06-27T15:12:49.233Z,48.50
2018-06-27T15:15:17.631Z,48.40
2018-06-27T15:17:45.947Z,47.40
2018-06-27T15:22:42.646Z,48.10
2018-06-27T15:25:11.020Z,48.00
2018-06-27T15:27:39.490Z,48.60
2018-06-27T15:30:07.889Z,47.70
2018-06-27T15:32:36.296Z,48.60
2018-06-27T15:35:05.425Z,47.60
2018-06-27T15:37:33.892Z,47.50
2018-06-27T15:40:02.221Z,48.40
2018-06-27T15:42:30.560Z,48.80
2018-06-27T15:44:58.903Z,48.40
2018-06-27T15:47:27.375Z,48.00
2018-06-27T15:49:55.763Z,48.10
2018-06-27T15:52:24.218Z,49.00
2018-06-27T15:54:52.632Z,49.40
2018-06-27T15:57:21.586Z,49.80
2018-06-27T15:59:53.244Z,49.90
2018-06-27T16:02:22.228Z,50.40
2018-06-27T16:04:50.604Z,50.60
2018-06-27T16:07:19.560Z,50.30
2018-06-27T16:09:49.114Z,49.40
2018-06-27T16:12:17.492Z,49.40
2018-06-27T16:14:46.187Z,49.20
2018-06-27T16:17:14.946Z,49.00
2018-06-27T16:19:43.558Z,48.80
2018-06-27T16:22:11.934Z,48.80
2018-06-27T16:27:20.046Z,48.20
2018-06-27T16:29:49.731Z,48.10
2018-06-27T16:32:18.086Z,48.80
2018-06-27T16:34:46.492Z,49.40
2018-06-27T16:39:43.042Z,47.40
2018-06-27T16:44:39.888Z,49.10
2018-06-27T16:47:08.249Z,49.80
2018-06-27T16:49:36.544Z,50.10
2018-06-27T16:52:04.946Z,50.70
2018-06-27T16:54:33.275Z,50.70
2018-06-27T16:57:01.665Z,51.10
2018-06-27T16:59:30.053Z,51.80
2018-06-27T17:01:58.471Z,51.90
2018-06-27T17:04:26.857Z,51.90
2018-06-27T17:06:55.225Z,52.30
2018-06-27T17:09:23.636Z,51.90
2018-06-27T17:11:52.006Z,51.70
2018-06-27T17:14:20.374Z,51.60
2018-06-27T17:16:48.730Z,51.80
2018-06-27T17:19:17.402Z,51.80
2018-06-27T17:21:45.834Z,51.80
2018-06-27T17:24:14.334Z,52.80
2018-06-27T17:26:42.606Z,52.80
2018-06-27T17:29:11.257Z,53.50
2018-06-27T17:31:39.918Z,53.90
2018-06-27T17:34:08.427Z,53.30
2018-06-27T17:36:37.158Z,52.00
2018-06-27T17:39:07.873Z,52.20
2018-06-27T17:41:36.575Z,52.80
2018-06-27T17:44:05.181Z,52.90
2018-06-27T17:46:33.497Z,53.20
2018-06-27T17:49:01.937Z,53.50
2018-06-27T17:51:30.452Z,54.40
2018-06-27T17:53:58.930Z,55.20
2018-06-27T17:56:27.497Z,56.00
2018-06-27T18:01:24.926Z,56.90
2018-06-27T18:03:53.687Z,57.30
2018-06-27T18:06:22.166Z,57.10
2018-06-27T18:08:50.945Z,57.30
2018-06-27T18:11:19.389Z,57.40
2018-06-27T18:13:47.809Z,57.10
2018-06-27T18:16:16.807Z,57.20
2018-06-27T18:18:45.254Z,57.30
2018-06-27T18:21:13.741Z,56.80
2018-06-27T18:23:42.271Z,56.90
2018-06-27T18:26:10.732Z,56.30
2018-06-27T18:28:39.118Z,55.20
2018-06-27T18:31:07.548Z,55.00
2018-06-27T18:33:36.292Z,54.70
2018-06-27T18:36:04.769Z,54.50
2018-06-27T18:38:33.161Z,56.00
2018-06-27T18:41:01.596Z,57.40
2018-06-27T18:43:30.000Z,58.20
2018-06-27T18:45:58.516Z,58.10
2018-06-27T18:48:27.105Z,58.60
2018-06-27T18:50:55.510Z,59.00
2018-06-27T18:53:24.028Z,59.00
2018-06-27T18:55:52.538Z,59.10
2018-06-27T18:58:21.612Z,59.10
2018-06-27T19:00:50.059Z,58.90
2018-06-27T19:03:18.498Z,59.20
2018-06-27T19:05:47.538Z,59.50
2018-06-27T19:08:16.098Z,59.60
2018-06-27T19:10:44.519Z,60.30
2018-06-27T19:13:33.529Z,60.90
2018-06-27T19:16:02.062Z,61.50
2018-06-27T19:18:30.557Z,61.80
2018-06-27T19:20:58.987Z,62.30
2018-06-27T19:23:27.503Z,62.30
2018-06-27T19:25:55.907Z,62.80
2018-06-27T19:28:24.348Z,61.70
2018-06-27T19:30:52.704Z,62.80
2018-06-27T19:33:21.424Z,62.90
2018-06-27T19:35:50.461Z,63.70
2018-06-27T19:38:18.877Z,63.30
2018-06-27T19:40:47.355Z,63.70
2018-06-27T19:43:16.095Z,63.70
2018-06-27T19:45:44.660Z,64.20
2018-06-27T19:48:13.116Z,64.60
2018-06-27T19:50:41.507Z,64.40
2018-06-27T19:53:09.885Z,64.50
2018-06-27T19:55:38.687Z,64.50
2018-06-27T19:58:07.105Z,64.80
2018-06-27T20:00:35.537Z,64.80
2018-06-27T20:03:04.242Z,64.90
2018-06-27T20:05:32.787Z,64.70
2018-06-27T20:08:01.415Z,64.70
2018-06-27T20:10:29.721Z,64.80
2018-06-27T20:12:58.183Z,65.80
2018-06-27T20:15:26.849Z,65.30
2018-06-27T20:17:55.475Z,65.60
2018-06-27T20:20:23.881Z,66.10
2018-06-27T20:22:52.282Z,66.40
2018-06-27T20:25:20.745Z,66.70
2018-06-27T20:27:49.234Z,66.30
2018-06-27T20:30:17.639Z,66.20
2018-06-27T20:32:46.204Z,66.40
2018-06-27T20:35:14.628Z,67.70
2018-06-27T20:37:44.307Z,67.00
2018-06-27T20:40:12.719Z,67.00
2018-06-27T20:42:41.127Z,67.40
2018-06-27T20:45:09.497Z,67.40
2018-06-27T20:50:06.114Z,68.00
2018-06-27T20:52:34.576Z,68.00
2018-06-27T20:55:03.076Z,68.70
2018-06-27T20:57:31.472Z,68.50
2018-06-27T21:00:00.140Z,68.20
2018-06-27T21:02:28.606Z,67.80
2018-06-27T21:04:57.524Z,67.60
2018-06-27T21:07:25.944Z,67.70
2018-06-27T21:09:54.436Z,68.70
2018-06-27T21:14:51.113Z,69.20
2018-06-27T21:19:47.850Z,70.00
2018-06-27T21:22:16.287Z,70.20
2018-06-27T21:24:45.707Z,70.40
2018-06-27T21:27:14.443Z,70.30
2018-06-27T21:29:43.024Z,70.30
2018-06-27T21:32:11.828Z,70.20
2018-06-27T21:34:41.176Z,70.10
2018-06-27T21:37:09.644Z,69.80
2018-06-27T21:39:38.066Z,69.90
2018-06-27T21:42:06.518Z,69.70
2018-06-27T21:44:34.933Z,69.90
2018-06-27T21:47:06.637Z,69.80
2018-06-27T21:49:35.028Z,70.20
2018-06-27T21:52:03.544Z,70.80
2018-06-27T21:54:32.367Z,71.00
2018-06-27T21:57:00.738Z,71.20
2018-06-27T21:59:29.140Z,71.50
2018-06-27T22:01:57.744Z,72.00
2018-06-27T22:04:26.430Z,73.30
2018-06-27T22:06:54.846Z,74.20
2018-06-27T22:09:23.869Z,73.80
2018-06-27T22:11:52.309Z,74.30
2018-06-27T22:14:20.781Z,74.70
2018-06-27T22:16:49.425Z,74.70
2018-06-27T22:19:18.136Z,75.20
2018-06-27T22:21:46.536Z,75.80
2018-06-27T22:24:15.030Z,76.80
2018-06-27T22:26:43.441Z,77.70
2018-06-27T22:29:12.090Z,78.70
2018-06-27T22:31:41.236Z,78.40
2018-06-27T22:34:09.730Z,79.00
2018-06-27T22:36:38.214Z,79.30
2018-06-27T22:39:08.130Z,79.70
2018-06-27T22:41:36.584Z,80.10
2018-06-27T22:44:05.205Z,80.70
2018-06-27T22:46:33.813Z,80.90
2018-06-27T22:49:02.253Z,80.50
2018-06-27T22:51:30.631Z,80.90
2018-06-27T22:53:59.138Z,81.60
2018-06-27T22:56:28.038Z,82.20
2018-06-27T22:58:56.492Z,82.00
2018-06-27T23:01:24.942Z,81.80
2018-06-27T23:03:53.292Z,82.50
2018-06-27T23:06:21.827Z,82.60
2018-06-27T23:08:50.281Z,82.50
2018-06-27T23:11:18.713Z,83.00
2018-06-27T23:13:47.095Z,83.00
2018-06-27T23:16:16.089Z,83.20
2018-06-27T23:18:44.484Z,84.20
2018-06-27T23:21:12.888Z,83.50
2018-06-27T23:23:41.295Z,82.80
2018-06-27T23:26:09.698Z,82.80
2018-06-27T23:28:38.099Z,82.30
2018-06-27T23:31:06.801Z,83.00
2018-06-27T23:33:35.185Z,83.00
2018-06-27T23:36:03.661Z,82.80
2018-06-27T23:38:32.344Z,82.60
2018-06-27T23:41:00.696Z,82.20
2018-06-27T23:43:29.119Z,82.90
2018-06-27T23:48:25.574Z,82.70
2018-06-27T23:50:53.991Z,82.80
2018-06-27T23:53:22.392Z,83.30
2018-06-27T23:55:50.809Z,82.60
2018-06-27T23:58:19.252Z,82.20
